createdAt,value
2022-08-05T00:00:48.411Z,22.58
2022-08-05T00:03:19.051Z,22.57
2022-08-05T00:06:05.236Z,22.56
2022-08-05T00:08:36.688Z,22.54
2022-08-05T00:11:20.274Z,22.52
2022-08-05T00:13:53.041Z,22.50
2022-08-05T00:16:35.995Z,22.47
2022-08-05T00:19:05.910Z,22.43
2022-08-05T00:21:36.009Z,22.40
2022-08-05T00:24:11.109Z,22.37
2022-08-05T00:26:51.841Z,22.33
2022-08-05T00:29:22.435Z,22.29
2022-08-05T00:32:11.091Z,22.26
2022-08-05T00:34:53.877Z,22.22
2022-08-05T00:37:51.002Z,22.18
2022-08-05T00:40:28.131Z,22.15
2022-08-05T00:42:59.088Z,22.09
2022-08-05T00:45:42.792Z,22.04
2022-08-05T00:48:14.051Z,21.98
2022-08-05T00:50:45.886Z,21.93
2022-08-05T00:54:00.820Z,21.89
2022-08-05T00:56:07.933Z,21.85
2022-08-05T00:58:37.344Z,21.83
2022-08-05T01:01:08.671Z,21.80
2022-08-05T01:03:38.024Z,21.78
2022-08-05T01:06:14.105Z,21.76
2022-08-05T01:08:44.763Z,21.72
2022-08-05T01:11:22.598Z,21.70
2022-08-05T01:14:04.205Z,21.68
2022-08-05T01:16:47.246Z,21.66
2022-08-05T01:20:02.479Z,21.64
2022-08-05T01:22:37.187Z,21.62
2022-08-05T01:25:39.614Z,21.60
2022-08-05T01:28:25.920Z,21.58
2022-08-05T01:30:59.328Z,21.56
2022-08-05T01:33:35.670Z,21.54
2022-08-05T01:36:12.920Z,21.53
2022-08-05T01:38:46.351Z,21.51
2022-08-05T01:41:22.642Z,21.49
2022-08-05T01:43:55.113Z,21.47
2022-08-05T01:46:42.239Z,21.45
2022-08-05T01:49:24.046Z,21.42
2022-08-05T01:51:58.224Z,21.39
2022-08-05T01:54:33.430Z,21.36
2022-08-05T01:58:09.707Z,21.33
2022-08-05T01:59:57.425Z,21.30
2022-08-05T02:02:31.271Z,21.27
2022-08-05T02:05:03.679Z,21.26
2022-08-05T02:07:33.648Z,21.23
2022-08-05T02:10:04.091Z,21.20
2022-08-05T02:12:43.384Z,21.18
2022-08-05T02:15:19.643Z,21.15
2022-08-05T02:18:32.173Z,21.14
2022-08-05T02:20:52.523Z,21.14
2022-08-05T02:23:29.234Z,21.14
2022-08-05T02:26:06.104Z,21.14
2022-08-05T02:28:45.984Z,21.13
2022-08-05T02:31:21.323Z,21.13
2022-08-05T02:33:57.308Z,21.13
2022-08-05T02:36:31.429Z,21.12
2022-08-05T02:39:04.210Z,21.10
2022-08-05T02:41:57.889Z,21.10
2022-08-05T02:44:28.944Z,21.07
2022-08-05T02:47:00.731Z,21.05
2022-08-05T02:49:37.130Z,21.04
2022-08-05T02:52:09.112Z,21.03
2022-08-05T02:54:41.070Z,21.03
2022-08-05T02:58:20.021Z,21.03
2022-08-05T03:00:03.657Z,21.04
2022-08-05T03:02:37.337Z,21.05
2022-08-05T03:05:09.348Z,21.06
2022-08-05T03:08:06.847Z,21.07
2022-08-05T03:10:30.366Z,21.07
2022-08-05T03:15:27.168Z,21.07
2022-08-05T03:17:57.562Z,21.08
2022-08-05T03:20:26.853Z,21.08
2022-08-05T03:22:57.614Z,21.07
2022-08-05T03:25:33.145Z,21.06
2022-08-05T03:28:21.198Z,21.06
2022-08-05T03:30:50.860Z,21.05
2022-08-05T03:33:20.715Z,21.05
2022-08-05T03:35:51.785Z,21.06
2022-08-05T03:38:23.854Z,21.08
2022-08-05T03:41:04.082Z,21.11
2022-08-05T03:44:08.074Z,21.15
2022-08-05T03:46:29.625Z,21.19
2022-08-05T03:48:59.704Z,21.22
2022-08-05T03:52:38.875Z,21.25
2022-08-05T03:55:06.836Z,21.30
2022-08-05T03:57:42.042Z,21.35
2022-08-05T04:00:59.610Z,21.48
2022-08-05T04:03:35.425Z,21.67
2022-08-05T04:06:20.551Z,21.85
2022-08-05T04:08:49.520Z,22.02
2022-08-05T04:11:18.699Z,22.22
2022-08-05T04:13:53.567Z,22.41
2022-08-05T04:16:24.244Z,22.63
2022-08-05T04:18:57.667Z,22.88
2022-08-05T04:22:09.545Z,23.16
2022-08-05T04:24:19.624Z,23.48
2022-08-05T04:26:51.365Z,23.81
2022-08-05T04:29:19.996Z,24.13
2022-08-05T04:31:49.648Z,24.44
2022-08-05T04:34:33.351Z,24.77
2022-08-05T04:37:03.446Z,25.16
2022-08-05T04:39:32.978Z,25.52
2022-08-05T04:42:05.318Z,25.89
2022-08-05T04:44:33.929Z,26.26
2022-08-05T04:47:09.495Z,26.60
2022-08-05T04:50:02.977Z,26.89
2022-08-05T04:52:29.078Z,27.14
2022-08-05T04:55:03.738Z,27.40
2022-08-05T04:57:47.597Z,27.67
2022-08-05T05:00:18.279Z,27.88
2022-08-05T05:02:52.288Z,28.09
2022-08-05T05:05:28.359Z,28.31
2022-08-05T05:08:02.375Z,28.48
2022-08-05T05:10:37.787Z,28.62
2022-08-05T05:13:06.422Z,28.77
2022-08-05T05:15:56.795Z,28.85
2022-08-05T05:18:31.461Z,28.99
2022-08-05T05:21:03.580Z,29.17
2022-08-05T05:24:02.412Z,29.35
2022-08-05T05:26:28.778Z,29.51
2022-08-05T05:29:02.388Z,29.62
2022-08-05T05:34:02.203Z,29.80
2022-08-05T05:36:31.727Z,29.86
2022-08-05T05:39:00.436Z,29.92
2022-08-05T05:41:40.159Z,30.02
2022-08-05T05:44:36.033Z,30.10
2022-08-05T05:47:04.406Z,30.15
2022-08-05T05:49:41.963Z,30.18
2022-08-05T05:52:25.521Z,30.24
2022-08-05T05:55:00.759Z,30.28
2022-08-05T05:57:52.175Z,30.29
2022-08-05T06:00:27.721Z,30.45
2022-08-05T06:03:02.359Z,30.61
2022-08-05T06:05:31.940Z,30.71
2022-08-05T06:12:42.190Z,31.23
2022-08-05T06:15:23.701Z,31.52
2022-08-05T06:17:54.669Z,31.82
2022-08-05T06:20:23.821Z,32.08
2022-08-05T06:22:52.931Z,32.39
2022-08-05T06:29:46.311Z,32.80
2022-08-05T06:32:24.822Z,32.84
2022-08-05T06:34:56.837Z,32.98
2022-08-05T06:37:55.818Z,33.15
2022-08-05T06:40:20.761Z,33.40
2022-08-05T06:42:52.513Z,33.60
2022-08-05T06:45:44.649Z,33.75
2022-08-05T06:48:36.148Z,33.87
2022-08-05T06:51:00.257Z,33.97
2022-08-05T06:53:29.551Z,34.11
2022-08-05T06:55:59.600Z,34.22
2022-08-05T06:58:36.236Z,34.43
2022-08-05T07:01:06.709Z,34.58
2022-08-05T07:03:36.305Z,34.61
2022-08-05T07:06:14.255Z,34.77
2022-08-05T07:08:47.975Z,34.88
2022-08-05T07:11:22.583Z,34.81
2022-08-05T07:14:20.126Z,34.70
2022-08-05T07:17:58.837Z,34.52
2022-08-05T07:20:23.142Z,34.25
2022-08-05T07:22:30.168Z,34.07
2022-08-05T07:25:54.273Z,34.03
2022-08-05T07:28:32.543Z,33.95
2022-08-05T07:31:01.086Z,33.87
2022-08-05T07:33:35.031Z,33.73
2022-08-05T07:36:20.856Z,33.64
2022-08-05T07:38:54.939Z,33.47
2022-08-05T07:42:13.532Z,33.31
2022-08-05T07:44:19.220Z,33.13
2022-08-05T07:46:50.134Z,33.04
2022-08-05T07:49:20.028Z,32.96
2022-08-05T07:51:54.620Z,32.91
2022-08-05T07:54:31.206Z,32.76
2022-08-05T07:57:18.113Z,32.62
2022-08-05T08:00:14.674Z,32.58
2022-08-05T08:03:14.773Z,32.50
2022-08-05T08:05:39.551Z,32.40
2022-08-05T08:08:12.423Z,32.34
2022-08-05T08:10:42.065Z,32.37
2022-08-05T08:13:21.777Z,32.30
2022-08-05T08:16:35.082Z,32.29
2022-08-05T08:18:50.125Z,32.34
2022-08-05T08:21:19.512Z,32.37
2022-08-05T08:24:02.891Z,32.31
2022-08-05T08:26:34.025Z,32.21
2022-08-05T08:29:45.100Z,32.13
2022-08-05T08:32:39.848Z,31.98
2022-08-05T08:45:24.434Z,31.41
2022-08-05T08:52:13.641Z,31.18
2022-08-05T08:54:59.686Z,31.08
2022-08-05T09:08:26.663Z,31.48
2022-08-05T09:11:52.921Z,31.56
2022-08-05T09:14:56.817Z,31.50
2022-08-05T09:17:41.022Z,31.43
2022-08-05T09:21:00.065Z,31.36
2022-08-05T09:23:37.424Z,31.40
2022-08-05T09:26:37.334Z,31.43
2022-08-05T09:29:08.961Z,31.51
2022-08-05T09:32:41.247Z,31.53
2022-08-05T09:35:26.483Z,31.50
2022-08-05T09:38:12.253Z,31.48
2022-08-05T09:40:52.486Z,31.45
2022-08-05T09:43:40.473Z,31.45
2022-08-05T09:46:39.024Z,31.47
2022-08-05T09:49:54.830Z,31.46
2022-08-05T09:56:52.540Z,31.42
2022-08-05T09:59:28.048Z,31.41
2022-08-05T10:02:34.548Z,31.40
2022-08-05T10:14:09.977Z,31.54
2022-08-05T10:16:53.516Z,31.56
2022-08-05T10:19:23.779Z,31.56
2022-08-05T10:25:39.541Z,31.53
2022-08-05T10:28:17.197Z,31.54
2022-08-05T10:32:51.032Z,31.50
2022-08-05T10:33:44.229Z,31.44
2022-08-05T10:36:12.840Z,31.36
2022-08-05T10:39:59.493Z,31.30
2022-08-05T10:42:47.508Z,31.20
2022-08-05T10:45:23.796Z,31.18
2022-08-05T10:48:39.515Z,31.19
2022-08-05T10:51:28.409Z,31.15
2022-08-05T10:54:23.362Z,31.11
2022-08-05T10:56:55.515Z,31.10
2022-08-05T11:00:03.223Z,31.11
2022-08-05T11:02:38.422Z,31.08
2022-08-05T11:05:09.414Z,31.04
2022-08-05T11:08:02.508Z,31.00
2022-08-05T11:10:50.438Z,30.95
2022-08-05T11:13:57.605Z,30.86
2022-08-05T11:16:47.389Z,30.83
2022-08-05T11:20:10.311Z,30.82
2022-08-05T11:22:44.618Z,30.79
2022-08-05T11:26:04.344Z,30.84
2022-08-05T11:28:43.814Z,30.85
2022-08-05T11:31:57.570Z,30.85
2022-08-05T11:34:37.074Z,30.84
2022-08-05T11:38:27.961Z,30.89
2022-08-05T11:40:02.898Z,30.90
2022-08-05T11:42:37.663Z,30.86
2022-08-05T11:45:23.348Z,30.87
2022-08-05T11:47:59.117Z,30.84
2022-08-05T11:50:29.640Z,30.80
2022-08-05T11:53:06.460Z,30.72
2022-08-05T11:55:52.205Z,30.65
2022-08-05T11:58:30.427Z,30.60
2022-08-05T12:01:08.307Z,30.57
2022-08-05T12:03:55.577Z,30.57
2022-08-05T12:06:28.278Z,30.58
2022-08-05T12:09:01.100Z,30.60
2022-08-05T12:11:40.375Z,30.61
2022-08-05T12:14:10.571Z,30.61
2022-08-05T12:16:45.146Z,30.57
2022-08-05T12:20:27.628Z,30.53
2022-08-05T12:22:07.906Z,30.54
2022-08-05T12:24:43.604Z,30.54
2022-08-05T12:27:25.324Z,30.53
2022-08-05T12:30:07.702Z,30.50
2022-08-05T12:32:50.628Z,30.48
2022-08-05T12:35:23.930Z,30.46
2022-08-05T12:38:07.519Z,30.49
2022-08-05T12:40:39.729Z,30.50
2022-08-05T12:43:20.781Z,30.50
2022-08-05T12:45:54.732Z,30.48
2022-08-05T12:48:32.323Z,30.48
2022-08-05T12:52:11.000Z,30.49
2022-08-05T12:54:14.788Z,30.47
2022-08-05T12:56:51.060Z,30.47
2022-08-05T12:59:27.590Z,30.45
2022-08-05T13:02:13.111Z,30.42
2022-08-05T13:04:54.432Z,30.40
2022-08-05T13:07:47.824Z,30.42
2022-08-05T13:10:19.811Z,30.43
2022-08-05T13:12:57.147Z,30.44
2022-08-05T13:15:41.464Z,30.45
2022-08-05T13:18:20.533Z,30.43
2022-08-05T13:20:50.328Z,30.44
2022-08-05T13:23:22.556Z,30.45
2022-08-05T13:25:59.531Z,30.46
2022-08-05T13:28:32.097Z,30.47
2022-08-05T13:31:11.124Z,30.48
2022-08-05T13:34:22.860Z,30.50
2022-08-05T13:36:33.786Z,30.50
2022-08-05T13:39:24.021Z,30.50
2022-08-05T13:41:53.334Z,30.51
2022-08-05T13:44:22.299Z,30.52
2022-08-05T13:47:04.491Z,30.50
2022-08-05T13:49:37.755Z,30.49
2022-08-05T13:52:15.916Z,30.48
2022-08-05T13:54:53.587Z,30.47
2022-08-05T13:57:24.539Z,30.47
2022-08-05T13:59:55.568Z,30.48
2022-08-05T14:02:29.681Z,30.50
2022-08-05T14:05:11.488Z,30.53
2022-08-05T14:08:00.206Z,30.54
2022-08-05T14:10:32.873Z,30.54
2022-08-05T14:13:02.802Z,30.53
2022-08-05T14:16:08.394Z,30.55
2022-08-05T14:18:24.005Z,30.56
2022-08-05T14:20:54.448Z,30.57
2022-08-05T14:23:27.445Z,30.58
2022-08-05T14:26:05.017Z,30.57
2022-08-05T14:28:34.898Z,30.59
2022-08-05T14:31:04.654Z,30.59
2022-08-05T14:33:59.435Z,30.58
2022-08-05T14:36:29.212Z,30.59
2022-08-05T14:39:00.069Z,30.58
2022-08-05T14:41:32.784Z,30.56
2022-08-05T14:44:14.483Z,30.53
2022-08-05T14:46:50.658Z,30.51
2022-08-05T14:49:19.679Z,30.50
2022-08-05T14:51:50.109Z,30.51
2022-08-05T14:54:30.264Z,30.53
2022-08-05T14:57:05.149Z,30.53
2022-08-05T14:59:38.702Z,30.54
2022-08-05T15:02:15.155Z,30.54
2022-08-05T15:04:47.940Z,30.54
2022-08-05T15:08:06.396Z,30.55
2022-08-05T15:10:10.499Z,30.56
2022-08-05T15:12:59.823Z,30.57
2022-08-05T15:15:54.522Z,30.58
2022-08-05T15:18:47.183Z,30.57
2022-08-05T15:21:16.086Z,30.56
2022-08-05T15:23:50.117Z,30.55
2022-08-05T15:26:31.806Z,30.54
2022-08-05T15:29:02.490Z,30.53
2022-08-05T15:31:34.994Z,30.52
2022-08-05T15:34:19.074Z,30.50
2022-08-05T15:36:52.544Z,30.48
2022-08-05T15:41:01.109Z,30.48
2022-08-05T15:42:54.731Z,30.47
2022-08-05T15:44:59.783Z,30.45
2022-08-05T15:47:28.439Z,30.43
2022-08-05T15:49:59.473Z,30.40
2022-08-05T15:52:54.245Z,30.38
2022-08-05T15:55:24.505Z,30.36
2022-08-05T15:57:54.063Z,30.34
2022-08-05T16:00:42.953Z,30.31
2022-08-05T16:03:14.921Z,30.30
2022-08-05T16:05:43.468Z,30.31
2022-08-05T16:08:19.386Z,30.31
2022-08-05T16:10:50.342Z,30.31
2022-08-05T16:13:23.438Z,30.31
2022-08-05T16:15:53.381Z,30.31
2022-08-05T16:18:22.381Z,30.31
2022-08-05T16:20:59.329Z,30.29
2022-08-05T16:23:33.014Z,30.28
2022-08-05T16:26:26.631Z,30.26
2022-08-05T16:28:56.229Z,30.27
2022-08-05T16:31:27.232Z,30.26
2022-08-05T16:34:17.762Z,30.26
2022-08-05T16:36:46.459Z,30.25
2022-08-05T16:39:16.060Z,30.25
2022-08-05T16:42:13.537Z,30.23
2022-08-05T16:44:34.417Z,30.23
2022-08-05T16:47:06.643Z,30.21
2022-08-05T16:49:55.840Z,30.18
2022-08-05T16:52:30.779Z,30.16
2022-08-05T16:55:04.451Z,30.13
2022-08-05T16:57:52.997Z,30.11
2022-08-05T17:00:26.103Z,30.10
2022-08-05T17:03:03.789Z,30.08
2022-08-05T17:05:38.338Z,30.06
2022-08-05T17:08:07.073Z,30.03
2022-08-05T17:10:36.987Z,30.00
2022-08-05T17:13:16.898Z,29.97
2022-08-05T17:15:49.780Z,29.93
2022-08-05T17:18:21.790Z,29.90
2022-08-05T17:20:51.108Z,29.87
2022-08-05T17:24:04.616Z,29.84
2022-08-05T17:26:08.626Z,29.81
2022-08-05T17:28:40.738Z,29.78
2022-08-05T17:31:24.062Z,29.75
2022-08-05T17:33:59.090Z,29.71
2022-08-05T17:36:33.635Z,29.68
2022-08-05T17:39:06.175Z,29.65
2022-08-05T17:42:19.608Z,29.61
2022-08-05T17:44:42.546Z,29.57
2022-08-05T17:47:21.910Z,29.54
2022-08-05T17:50:03.481Z,29.50
2022-08-05T17:52:52.555Z,29.46
2022-08-05T17:55:22.853Z,29.42
2022-08-05T17:58:03.687Z,29.37
2022-08-05T18:00:33.944Z,29.32
2022-08-05T18:03:02.613Z,29.28
2022-08-05T18:05:35.558Z,29.25
2022-08-05T18:08:05.910Z,29.21
2022-08-05T18:10:35.480Z,29.16
2022-08-05T18:13:12.282Z,29.11
2022-08-05T18:15:41.452Z,29.07
2022-08-05T18:18:12.663Z,29.01
2022-08-05T18:20:41.343Z,28.96
2022-08-05T18:23:17.361Z,28.92
2022-08-05T18:25:47.152Z,28.87
2022-08-05T18:28:28.459Z,28.81
2022-08-05T18:30:57.175Z,28.74
2022-08-05T18:33:26.421Z,28.67
2022-08-05T18:36:15.209Z,28.60
2022-08-05T18:38:44.315Z,28.52
2022-08-05T18:41:54.054Z,28.46
2022-08-05T18:44:05.502Z,28.38
2022-08-05T18:46:35.977Z,28.31
2022-08-05T18:49:19.043Z,28.26
2022-08-05T18:52:09.135Z,28.20
2022-08-05T18:54:41.399Z,28.15
2022-08-05T18:57:17.217Z,28.10
2022-08-05T19:00:03.255Z,28.06
2022-08-05T19:02:33.318Z,28.00
2022-08-05T19:06:12.544Z,27.94
2022-08-05T19:07:54.729Z,27.90
2022-08-05T19:10:28.101Z,27.85
2022-08-05T19:12:57.435Z,27.81
2022-08-05T19:15:57.582Z,27.75
2022-08-05T19:18:21.892Z,27.72
2022-08-05T19:20:51.975Z,27.68
2022-08-05T19:24:05.423Z,27.63
2022-08-05T19:26:12.185Z,27.58
2022-08-05T19:28:42.321Z,27.54
2022-08-05T19:31:13.178Z,27.49
2022-08-05T19:33:48.453Z,27.43
2022-08-05T19:36:25.296Z,27.37
2022-08-05T19:38:58.929Z,27.31
2022-08-05T19:42:05.732Z,27.25
2022-08-05T19:44:20.602Z,27.20
2022-08-05T19:46:50.148Z,27.15
2022-08-05T19:49:19.277Z,27.11
2022-08-05T19:52:19.656Z,27.07
2022-08-05T19:54:37.202Z,27.02
2022-08-05T19:57:10.124Z,26.96
2022-08-05T19:59:55.476Z,26.91
2022-08-05T20:02:31.358Z,26.88
2022-08-05T20:05:25.915Z,26.84
2022-08-05T20:08:12.081Z,26.79
2022-08-05T20:10:43.308Z,26.77
2022-08-05T20:13:12.148Z,26.72
2022-08-05T20:15:58.379Z,26.67
2022-08-05T20:19:36.096Z,26.65
2022-08-05T20:22:14.825Z,26.59
2022-08-05T20:24:46.500Z,26.56
2022-08-05T20:27:17.964Z,26.52
2022-08-05T20:29:58.380Z,26.49
2022-08-05T20:32:30.703Z,26.46
2022-08-05T20:35:04.977Z,26.42
2022-08-05T20:38:05.725Z,26.39
2022-08-05T20:40:38.530Z,26.36
2022-08-05T20:43:14.525Z,26.34
2022-08-05T20:45:56.215Z,26.30
2022-08-05T20:48:28.866Z,26.27
2022-08-05T20:51:00.566Z,26.24
2022-08-05T20:53:41.172Z,26.20
2022-08-05T20:56:12.984Z,26.17
2022-08-05T20:59:04.029Z,26.14
2022-08-05T21:05:05.730Z,26.05
2022-08-05T21:07:50.543Z,26.03
2022-08-05T21:10:23.862Z,26.01
2022-08-05T21:13:08.224Z,25.99
2022-08-05T21:15:44.551Z,25.96
2022-08-05T21:18:23.363Z,25.94
2022-08-05T21:20:56.972Z,25.92
2022-08-05T21:23:37.031Z,25.90
2022-08-05T21:26:12.485Z,25.88
2022-08-05T21:28:48.029Z,25.88
2022-08-05T21:31:24.768Z,25.86
2022-08-05T21:33:57.643Z,25.85
2022-08-05T21:36:32.371Z,25.84
2022-08-05T21:39:04.522Z,25.85
2022-08-05T21:41:35.871Z,25.84
2022-08-05T21:44:07.669Z,25.83
2022-08-05T21:46:42.241Z,25.83
2022-08-05T21:49:59.451Z,25.82
2022-08-05T21:52:21.689Z,25.82
2022-08-05T21:54:55.169Z,25.80
2022-08-05T21:57:33.850Z,25.80
2022-08-05T22:00:11.290Z,25.77
2022-08-05T22:02:46.624Z,25.76
2022-08-05T22:05:17.853Z,25.72
2022-08-05T22:07:59.161Z,25.70
2022-08-05T22:10:31.622Z,25.67
2022-08-05T22:13:09.146Z,25.65
2022-08-05T22:16:02.035Z,25.63
2022-08-05T22:18:43.084Z,25.59
2022-08-05T22:21:20.565Z,25.57
2022-08-05T22:24:13.161Z,25.56
2022-08-05T22:27:20.568Z,25.53
2022-08-05T22:29:54.278Z,25.51
2022-08-05T22:32:25.858Z,25.50
2022-08-05T22:34:57.839Z,25.48
2022-08-05T22:37:58.022Z,25.47
2022-08-05T22:40:20.668Z,25.47
2022-08-05T22:42:57.938Z,25.45
2022-08-05T22:45:30.705Z,25.44
2022-08-05T22:48:02.554Z,25.44
2022-08-05T22:50:33.870Z,25.43
2022-08-05T22:53:09.849Z,25.42
2022-08-05T22:55:57.046Z,25.41
2022-08-05T22:58:30.807Z,25.40
2022-08-05T23:01:04.922Z,25.40
2022-08-05T23:03:57.747Z,25.38
2022-08-05T23:06:28.942Z,25.37
2022-08-05T23:09:24.775Z,25.36
2022-08-05T23:11:51.664Z,25.34
2022-08-05T23:14:32.205Z,25.33
2022-08-05T23:17:23.925Z,25.31
2022-08-05T23:19:58.102Z,25.30
2022-08-05T23:22:30.897Z,25.28
2022-08-05T23:25:02.501Z,25.26
2022-08-05T23:27:57.703Z,25.25
2022-08-05T23:30:27.107Z,25.23
2022-08-05T23:33:00.444Z,25.20
2022-08-05T23:35:34.451Z,25.17
2022-08-05T23:38:06.162Z,25.15
2022-08-05T23:40:50.175Z,25.12
2022-08-05T23:43:24.826Z,25.09
2022-08-05T23:46:19.970Z,25.04
2022-08-05T23:49:00.866Z,25.01
2022-08-05T23:51:52.342Z,24.97
2022-08-05T23:54:26.645Z,24.94
2022-08-05T23:57:04.643Z,24.90
